Calvert City, Kentucky
Current Conditions -  °F | °C
As of 6:35 AM on Monday 24 Nov 2014 (Local Time) from KM25 Reporting Station
Overcast Overcast  
Wind Chill: 41°   Ceiling: 1600
Heat Index: 48°   Visibility: 10mi
Dew Point: 45°   Wind: 20mph
Humidity: 87%   Direction: 260°W
Pressure: 29.56"   Gusts: 26mph
Location:  37.03°N, 88.35°W
Report Text: KM25 241235Z AUTO 26017G23KT 10SM BKN016 OVC025 09/07 A2956 RMK AO2
Loading
Personal Weather Stations






























Interactive Weather Map New forecast layout! Learn more

10-Day Weather Forecast

Advertisements
Track Severe Weather on mobile